Time;durP1;ratioP1;P1;durP2;ratioP2;P2;SDS_P1;SDS_P2;PMS_P1;PMS_P2;Temp;Humidity;BMP_temperature;BMP_pressure;BME280_temperature;BME280_humidity;BME280_pressure;Samples;Min_cycle;Max_cycle;Signal;HPM_P1;HPM_P2
2022/10/05 00:00:35;;;;;;;17.80;7.28;;;14.20;69.40;;;;;;4124826;28;20045;-85
2022/10/05 00:02:54;;;;;;;12.55;6.72;;;14.20;69.50;;;;;;4129687;28;20040;-85
2022/10/05 00:05:20;;;;;;;14.75;7.05;;;14.30;69.70;;;;;;4124620;28;20443;-85
2022/10/05 00:07:39;;;;;;;13.85;6.63;;;14.20;69.70;;;;;;4118056;28;20563;-86
2022/10/05 00:09:59;;;;;;;17.75;6.88;;;14.20;69.70;;;;;;4128945;28;20092;-84
2022/10/05 00:12:20;;;;;;;17.35;7.20;;;14.20;70.00;;;;;;4122454;28;20288;-85
2022/10/05 00:14:39;;;;;;;11.45;6.93;;;14.30;70.10;;;;;;4128521;28;20440;-86
2022/10/05 00:17:00;;;;;;;15.07;7.65;;;14.30;70.20;;;;;;4127423;28;20069;-85
2022/10/05 00:19:29;;;;;;;14.90;7.07;;;14.20;70.20;;;;;;4128343;28;20069;-85
2022/10/05 00:21:49;;;;;;;17.10;6.57;;;14.20;70.20;;;;;;4126788;28;20065;-84
2022/10/05 00:24:10;;;;;;;22.05;7.47;;;14.30;70.30;;;;;;4125341;28;20396;-85
2022/10/05 00:26:32;;;;;;;15.25;6.55;;;14.30;70.40;;;;;;4124030;28;20088;-85
2022/10/05 00:28:52;;;;;;;14.07;6.72;;;14.30;70.40;;;;;;4127248;28;20576;-85
2022/10/05 00:31:18;;;;;;;19.73;6.85;;;14.30;70.40;;;;;;4124801;28;20068;-84
2022/10/05 00:33:38;;;;;;;14.18;6.38;;;14.30;70.50;;;;;;4123353;28;20033;-85
2022/10/05 00:35:57;;;;;;;13.13;6.05;;;14.40;70.50;;;;;;4125902;28;20575;-85
2022/10/05 00:38:16;;;;;;;11.43;6.25;;;14.30;70.30;;;;;;4125635;28;20076;-84
2022/10/05 00:41:00;;;;;;;13.57;5.93;;;14.30;70.30;;;;;;4125547;28;20073;-84
2022/10/05 00:43:57;;;;;;;18.55;6.78;;;14.30;70.40;;;;;;4129848;28;20033;-85
2022/10/05 00:46:24;;;;;;;26.77;7.35;;;14.20;70.30;;;;;;4122412;28;20096;-84
2022/10/05 00:49:28;;;;;;;11.95;6.32;;;14.30;70.40;;;;;;4125819;28;20041;-86
2022/10/05 00:52:05;;;;;;;28.23;7.35;;;14.30;70.50;;;;;;4103407;28;20170;-85
2022/10/05 00:54:45;;;;;;;15.45;6.63;;;14.30;70.50;;;;;;4129050;28;20069;-85
2022/10/05 00:57:19;;;;;;;13.90;6.70;;;14.30;70.60;;;;;;4126310;28;20041;-85
2022/10/05 00:59:51;;;;;;;17.00;7.47;;;14.30;70.70;;;;;;4123530;28;20045;-85
2022/10/05 01:02:22;;;;;;;19.65;7.80;;;14.30;70.90;;;;;;4124404;28;20046;-85
2022/10/05 01:04:52;;;;;;;14.20;6.95;;;14.30;70.80;;;;;;4126823;28;20036;-84
2022/10/05 01:07:29;;;;;;;16.00;7.20;;;14.30;71.10;;;;;;4123306;28;20044;-85
2022/10/05 01:10:15;;;;;;;13.88;7.22;;;14.30;71.10;;;;;;4125790;28;20505;-84
2022/10/05 01:13:00;;;;;;;17.75;7.60;;;14.30;71.20;;;;;;4104687;28;20182;-84
2022/10/05 01:15:38;;;;;;;13.30;7.53;;;14.30;71.30;;;;;;4122810;28;20170;-85
2022/10/05 01:18:31;;;;;;;19.67;7.90;;;14.30;71.20;;;;;;4124934;28;20092;-84
2022/10/05 01:21:05;;;;;;;14.70;7.07;;;14.30;71.30;;;;;;4110291;28;20073;-84
2022/10/05 01:23:50;;;;;;;23.48;7.60;;;14.30;71.20;;;;;;4140197;28;20053;-85
2022/10/05 01:26:28;;;;;;;15.80;7.38;;;14.20;71.50;;;;;;4126449;28;20037;-84
2022/10/05 01:28:59;;;;;;;20.63;6.97;;;14.20;71.20;;;;;;4124227;28;20591;-83
2022/10/05 01:31:24;;;;;;;14.73;7.35;;;14.20;71.20;;;;;;4123989;28;20037;-85
2022/10/05 01:34:09;;;;;;;15.32;7.22;;;14.30;71.20;;;;;;4126491;28;20042;-85
2022/10/05 01:36:46;;;;;;;19.02;7.13;;;14.20;71.10;;;;;;4125330;28;20052;-83
2022/10/05 01:39:15;;;;;;;16.50;6.78;;;14.30;71.20;;;;;;4122618;28;20037;-84
2022/10/05 01:42:23;;;;;;;18.27;7.75;;;14.20;71.20;;;;;;4123150;28;20109;-84
2022/10/05 01:45:02;;;;;;;17.30;7.45;;;14.20;71.60;;;;;;4099359;28;20046;-84
2022/10/05 01:47:33;;;;;;;15.45;7.43;;;14.20;71.40;;;;;;4124508;28;20060;-85
2022/10/05 01:49:59;;;;;;;12.82;7.05;;;14.20;71.40;;;;;;4125644;28;20033;-85
2022/10/05 01:52:40;;;;;;;17.08;7.50;;;14.20;71.50;;;;;;4106746;28;20142;-85
2022/10/05 01:55:10;;;;;;;13.93;7.03;;;14.20;71.90;;;;;;4128954;28;20096;-84
2022/10/05 01:58:07;;;;;;;13.77;6.70;;;14.20;71.80;;;;;;4121227;28;20539;-84
2022/10/05 02:00:28;;;;;;;13.65;6.35;;;14.10;71.80;;;;;;4123935;28;20045;-85
2022/10/05 02:02:55;;;;;;;19.52;7.28;;;14.20;71.70;;;;;;4126003;28;20049;-85
2022/10/05 02:05:49;;;;;;;16.80;7.50;;;14.30;71.90;;;;;;4125460;28;20133;-84
2022/10/05 02:08:29;;;;;;;19.05;7.93;;;14.20;72.60;;;;;;4119716;28;20048;-84
2022/10/05 02:10:56;;;;;;;12.57;6.75;;;14.20;72.10;;;;;;4127700;28;20407;-84
2022/10/05 02:13:25;;;;;;;18.05;7.65;;;14.20;72.00;;;;;;4103278;28;20085;-84
2022/10/05 02:15:52;;;;;;;19.90;6.57;;;14.30;72.20;;;;;;4121412;28;20148;-84
2022/10/05 02:18:24;;;;;;;17.73;7.45;;;14.20;72.10;;;;;;4123177;28;20033;-84
2022/10/05 02:20:45;;;;;;;17.17;7.22;;;14.30;72.40;;;;;;4124498;28;20041;-84
2022/10/05 02:23:09;;;;;;;22.35;7.78;;;14.20;72.30;;;;;;4128363;28;20057;-85
2022/10/05 02:25:41;;;;;;;21.80;7.80;;;14.30;72.40;;;;;;4124396;28;20060;-84
2022/10/05 02:28:05;;;;;;;16.88;7.38;;;14.20;72.50;;;;;;4120127;28;20048;-84
2022/10/05 02:30:27;;;;;;;19.48;8.32;;;14.40;72.50;;;;;;4125293;28;20495;-85
2022/10/05 02:32:58;;;;;;;15.80;7.82;;;14.30;72.50;;;;;;4122812;28;20076;-85
2022/10/05 02:35:20;;;;;;;18.83;7.80;;;14.20;72.30;;;;;;4121789;28;20092;-85
2022/10/05 02:37:56;;;;;;;20.02;8.10;;;14.30;72.40;;;;;;4123281;28;20523;-85
2022/10/05 02:40:33;;;;;;;17.38;7.82;;;14.30;72.40;;;;;;4124434;28;20092;-85
2022/10/05 02:43:31;;;;;;;18.88;7.80;;;14.30;72.40;;;;;;4123655;28;20125;-84
2022/10/05 02:46:25;;;;;;;11.57;7.20;;;14.30;72.40;;;;;;4122061;28;20216;-84
2022/10/05 02:49:22;;;;;;;14.52;7.43;;;14.30;72.20;;;;;;4090109;28;20053;-84
2022/10/05 02:52:04;;;;;;;17.40;8.18;;;14.30;72.40;;;;;;4126273;28;20108;-85
2022/10/05 02:54:22;;;;;;;17.08;7.72;;;14.20;72.40;;;;;;4106729;28;20544;-85
2022/10/05 02:56:59;;;;;;;15.50;7.60;;;14.30;72.30;;;;;;4107145;28;20747;-85
2022/10/05 02:59:40;;;;;;;16.40;7.45;;;14.20;72.50;;;;;;4121590;28;20157;-84
2022/10/05 03:02:14;;;;;;;21.55;7.55;;;14.20;72.40;;;;;;4117234;28;22053;-84
2022/10/05 03:04:55;;;;;;;22.70;8.13;;;14.20;72.40;;;;;;4123517;28;20491;-85
2022/10/05 03:07:29;;;;;;;18.67;8.25;;;14.20;72.60;;;;;;4124578;28;20053;-84
2022/10/05 03:10:09;;;;;;;14.43;7.43;;;14.20;72.60;;;;;;4124950;28;20048;-84
2022/10/05 03:12:50;;;;;;;13.40;7.50;;;14.20;73.00;;;;;;4124885;28;20428;-84
2022/10/05 03:15:42;;;;;;;16.08;6.43;;;14.20;72.70;;;;;;4123813;28;20041;-84
2022/10/05 03:18:23;;;;;;;18.52;7.40;;;14.20;72.90;;;;;;4120753;28;20096;-84
2022/10/05 03:21:01;;;;;;;15.02;7.55;;;14.10;73.00;;;;;;4110976;28;20085;-85
2022/10/05 03:23:49;;;;;;;20.25;8.25;;;14.10;73.00;;;;;;4119117;28;20066;-85
2022/10/05 03:26:33;;;;;;;18.02;7.47;;;14.10;73.10;;;;;;4120512;28;20046;-84
2022/10/05 03:29:13;;;;;;;16.08;7.57;;;14.20;73.20;;;;;;4122652;28;20578;-85
2022/10/05 03:31:55;;;;;;;22.05;7.85;;;14.10;73.20;;;;;;4121695;28;20125;-85
2022/10/05 03:34:34;;;;;;;15.13;7.75;;;14.10;73.20;;;;;;4124516;28;20045;-85
2022/10/05 03:37:07;;;;;;;17.25;7.97;;;14.10;73.20;;;;;;4126145;28;20123;-85
2022/10/05 03:39:46;;;;;;;19.15;8.30;;;14.10;73.20;;;;;;4124205;28;20041;-86
2022/10/05 03:42:42;;;;;;;20.33;7.63;;;14.20;73.40;;;;;;4126878;28;20096;-85
2022/10/05 03:45:26;;;;;;;17.88;6.68;;;14.10;73.60;;;;;;4112200;28;20444;-85
2022/10/05 03:48:00;;;;;;;14.57;7.20;;;14.10;73.40;;;;;;4132156;28;20110;-85
2022/10/05 03:50:41;;;;;;;16.25;7.13;;;14.10;73.40;;;;;;4129798;28;20530;-84
2022/10/05 03:53:05;;;;;;;14.57;7.75;;;14.10;73.50;;;;;;4122434;28;20089;-85
2022/10/05 03:55:51;;;;;;;19.30;7.80;;;14.20;73.80;;;;;;4128570;28;20048;-85
2022/10/05 03:58:19;;;;;;;22.42;7.72;;;14.10;73.80;;;;;;4130214;28;20451;-85
2022/10/05 04:00:40;;;;;;;19.13;7.88;;;14.10;73.70;;;;;;4129046;28;20037;-84
2022/10/05 04:03:09;;;;;;;24.00;7.45;;;14.10;73.60;;;;;;4111706;28;20057;-86
2022/10/05 04:05:34;;;;;;;13.98;6.18;;;14.10;73.80;;;;;;4131191;28;20396;-85
2022/10/05 04:08:12;;;;;;;16.67;6.90;;;14.10;73.70;;;;;;4128346;28;20133;-85
2022/10/05 04:10:43;;;;;;;17.55;7.00;;;14.10;73.90;;;;;;4129458;28;20050;-85
2022/10/05 04:13:10;;;;;;;16.08;7.05;;;14.10;74.00;;;;;;4113648;28;20042;-86
2022/10/05 04:15:41;;;;;;;12.95;7.00;;;14.10;73.90;;;;;;4129077;28;20057;-85
2022/10/05 04:18:05;;;;;;;17.02;7.38;;;14.10;74.10;;;;;;4126174;28;20096;-85
2022/10/05 04:20:34;;;;;;;14.82;6.20;;;14.00;74.00;;;;;;4132157;28;20564;-86
2022/10/05 04:23:04;;;;;;;15.25;6.75;;;14.00;74.00;;;;;;4142415;28;20112;-85
2022/10/05 04:25:28;;;;;;;16.08;6.85;;;14.00;74.00;;;;;;4130049;28;20067;-86
2022/10/05 04:28:03;;;;;;;14.57;6.97;;;14.10;74.10;;;;;;4132448;28;20465;-85
2022/10/05 04:30:22;;;;;;;17.02;6.90;;;14.00;74.10;;;;;;4130033;28;20459;-86
2022/10/05 04:32:53;;;;;;;19.23;7.57;;;14.00;74.10;;;;;;4131322;28;20109;-85
2022/10/05 04:35:24;;;;;;;14.98;7.45;;;14.00;74.20;;;;;;4127942;28;20056;-84
2022/10/05 04:37:55;;;;;;;15.25;7.80;;;14.00;74.50;;;;;;4124414;28;20553;-86
2022/10/05 04:40:39;;;;;;;14.88;7.28;;;13.90;74.10;;;;;;4128372;28;20142;-84
2022/10/05 04:42:59;;;;;;;17.80;7.32;;;14.00;74.10;;;;;;4128504;28;20092;-85
2022/10/05 04:45:25;;;;;;;17.88;7.32;;;14.00;74.10;;;;;;4129945;28;20061;-85
2022/10/05 04:48:03;;;;;;;16.35;7.18;;;13.90;74.20;;;;;;4126267;28;20058;-85
2022/10/05 04:50:48;;;;;;;16.70;7.22;;;13.90;74.30;;;;;;4129633;28;20128;-85
2022/10/05 04:53:49;;;;;;;15.35;6.95;;;13.90;74.50;;;;;;4128810;28;20041;-84
2022/10/05 04:56:19;;;;;;;14.57;7.60;;;13.80;74.30;;;;;;4050330;29;20067;-85
2022/10/05 04:59:21;;;;;;;14.35;6.97;;;13.80;74.20;;;;;;4052252;29;20053;-84
2022/10/05 05:02:05;;;;;;;19.25;6.90;;;13.80;74.60;;;;;;4039957;29;20046;-85
2022/10/05 05:04:43;;;;;;;16.70;6.60;;;13.80;74.30;;;;;;4051027;29;20048;-84
2022/10/05 05:07:39;;;;;;;18.33;6.30;;;13.80;74.30;;;;;;4049831;29;20431;-84
2022/10/05 05:10:32;;;;;;;15.25;6.35;;;13.80;74.40;;;;;;4056388;29;20108;-84
2022/10/05 05:13:13;;;;;;;19.15;6.80;;;13.80;74.30;;;;;;4053976;29;20095;-84
2022/10/05 05:15:41;;;;;;;12.35;6.45;;;13.80;74.40;;;;;;4054435;29;20067;-84
2022/10/05 05:18:46;;;;;;;13.68;6.00;;;13.80;74.40;;;;;;4054556;29;20047;-84
2022/10/05 05:21:36;;;;;;;14.70;6.15;;;13.80;74.70;;;;;;4052685;29;20048;-84
2022/10/05 05:24:10;;;;;;;10.85;5.70;;;13.70;74.40;;;;;;4063683;29;20065;-83
2022/10/05 05:26:56;;;;;;;9.57;5.45;;;13.70;74.50;;;;;;4049954;29;20047;-84
2022/10/05 05:29:19;;;;;;;14.43;6.13;;;13.70;74.60;;;;;;4052138;29;20044;-85
2022/10/05 05:31:47;;;;;;;11.80;5.60;;;13.70;74.40;;;;;;4052650;29;20470;-84
2022/10/05 05:34:13;;;;;;;12.63;5.78;;;13.70;74.50;;;;;;4130150;28;20515;-84
2022/10/05 05:36:47;;;;;;;15.23;6.00;;;13.70;74.70;;;;;;4130839;28;20368;-85
2022/10/05 05:39:26;;;;;;;18.00;5.60;;;13.70;74.70;;;;;;4131582;28;20037;-85
2022/10/05 05:42:00;;;;;;;12.52;4.93;;;13.70;75.00;;;;;;4130516;28;20113;-85
2022/10/05 05:44:24;;;;;;;7.78;4.45;;;13.70;75.00;;;;;;4132338;28;20117;-84
2022/10/05 05:47:08;;;;;;;14.07;5.65;;;13.70;75.00;;;;;;4129942;28;20125;-84
2022/10/05 05:49:59;;;;;;;10.35;5.18;;;13.70;75.00;;;;;;4129247;28;20162;-85
2022/10/05 05:52:31;;;;;;;11.60;5.00;;;13.70;75.30;;;;;;4132153;28;20053;-84
2022/10/05 05:54:56;;;;;;;13.57;5.47;;;13.80;75.20;;;;;;4114457;28;20109;-84
2022/10/05 05:57:27;;;;;;;11.75;4.55;;;13.80;75.30;;;;;;4115790;28;20037;-85
2022/10/05 06:00:04;;;;;;;10.45;4.55;;;13.80;75.30;;;;;;4130561;28;20278;-84
2022/10/05 06:02:39;;;;;;;9.48;4.85;;;13.80;75.10;;;;;;4130638;28;20570;-85
2022/10/05 06:05:23;;;;;;;9.90;4.50;;;13.80;75.10;;;;;;4115943;28;20042;-84
2022/10/05 06:07:42;;;;;;;11.57;4.75;;;13.90;75.20;;;;;;4129967;28;20049;-84
2022/10/05 06:10:28;;;;;;;13.18;4.90;;;13.90;75.10;;;;;;4128337;28;20140;-84
2022/10/05 06:12:53;;;;;;;10.70;4.43;;;13.90;75.30;;;;;;4131695;28;20080;-84
2022/10/05 06:15:35;;;;;;;13.45;5.03;;;14.00;75.30;;;;;;4132299;28;20041;-84
2022/10/05 06:18:00;;;;;;;7.55;4.38;;;14.00;75.30;;;;;;4118461;28;21031;-85
2022/10/05 06:20:28;;;;;;;9.25;4.70;;;14.00;75.20;;;;;;4134397;28;20053;-85
2022/10/05 06:22:48;;;;;;;13.05;4.13;;;14.00;75.10;;;;;;4130444;28;20608;-85
2022/10/05 06:25:11;;;;;;;10.82;4.65;;;14.10;75.10;;;;;;4117346;28;20061;-84
2022/10/05 06:27:33;;;;;;;8.38;4.10;;;14.10;75.00;;;;;;4128551;28;20392;-85
2022/10/05 06:30:07;;;;;;;15.52;4.55;;;14.20;75.10;;;;;;4128469;28;20060;-84
2022/10/05 06:32:32;;;;;;;13.02;4.47;;;14.10;74.90;;;;;;4113429;28;20105;-85
2022/10/05 06:35:05;;;;;;;11.52;4.65;;;14.10;74.90;;;;;;4129085;28;20505;-84
2022/10/05 06:37:36;;;;;;;11.35;4.30;;;14.20;74.80;;;;;;4128404;28;20057;-85
2022/10/05 06:40:24;;;;;;;8.60;4.03;;;14.20;74.70;;;;;;4128721;28;20057;-84
2022/10/05 06:43:01;;;;;;;8.27;4.25;;;14.20;74.60;;;;;;4129170;28;20519;-84
2022/10/05 06:45:35;;;;;;;10.38;4.57;;;14.20;74.60;;;;;;4127132;28;20040;-85
2022/10/05 06:48:01;;;;;;;9.63;4.38;;;14.30;74.60;;;;;;4129856;28;20530;-84
2022/10/05 06:50:26;;;;;;;13.15;4.65;;;14.30;74.40;;;;;;4129112;28;20041;-85
2022/10/05 06:53:05;;;;;;;7.43;3.83;;;14.30;74.40;;;;;;4132439;28;20072;-83
2022/10/05 06:55:40;;;;;;;8.27;3.95;;;14.30;74.30;;;;;;4128946;28;20041;-83
2022/10/05 06:58:26;;;;;;;9.02;4.18;;;14.30;74.20;;;;;;4128579;28;20576;-83
2022/10/05 07:00:52;;;;;;;7.65;3.78;;;14.40;74.20;;;;;;4129761;28;20042;-83
2022/10/05 07:03:26;;;;;;;12.10;4.53;;;14.40;74.10;;;;;;4130706;28;20041;-84
2022/10/05 07:06:08;;;;;;;7.82;3.65;;;14.40;74.00;;;;;;4132464;28;20096;-84
2022/10/05 07:08:43;;;;;;;10.43;4.65;;;14.50;74.10;;;;;;4128287;28;20044;-84
2022/10/05 07:11:18;;;;;;;;;;;14.40;74.00;;;;;;4128945;28;20128;-84
2022/10/05 07:13:58;;;;;;;;;;;14.50;74.00;;;;;;4128697;28;19924;-84
2022/10/05 07:16:25;;;;;;;10.20;4.65;;;14.60;74.00;;;;;;4130606;28;19916;-85
2022/10/05 07:19:13;;;;;;;10.75;4.13;;;14.60;73.60;;;;;;4117910;28;20937;-83
2022/10/05 07:21:44;;;;;;;7.05;4.18;;;14.60;73.70;;;;;;4131380;28;20041;-83
2022/10/05 07:24:30;;;;;;;7.88;4.07;;;14.60;73.60;;;;;;4131235;28;20045;-85
2022/10/05 07:27:02;;;;;;;9.38;4.18;;;14.60;73.40;;;;;;4132488;28;20040;-84
2022/10/05 07:29:42;;;;;;;15.52;4.05;;;14.70;73.40;;;;;;4133452;28;20053;-84
2022/10/05 07:32:24;;;;;;;11.95;4.47;;;14.70;73.30;;;;;;4114965;28;20109;-84
2022/10/05 07:34:46;;;;;;;8.65;4.43;;;14.70;73.30;;;;;;4130142;28;20072;-84
2022/10/05 07:40:04;;;;;;;8.68;3.60;;;14.70;73.00;;;;;;4131730;28;20374;-84
2022/10/05 07:42:29;;;;;;;8.18;4.47;;;14.80;73.00;;;;;;4130306;28;20124;-83
2022/10/05 07:44:54;;;;;;;18.95;5.00;;;14.90;73.00;;;;;;4128076;28;20108;-84
2022/10/05 07:47:37;;;;;;;7.30;4.03;;;14.80;72.80;;;;;;4120986;28;20186;-83
2022/10/05 07:50:25;;;;;;;14.77;4.40;;;14.90;72.70;;;;;;4131838;28;20099;-84
2022/10/05 07:52:53;;;;;;;8.52;4.10;;;14.90;72.60;;;;;;4129961;28;20050;-84
2022/10/05 07:55:24;;;;;;;12.27;4.10;;;14.90;72.70;;;;;;4133217;28;20037;-83
2022/10/05 07:57:59;;;;;;;12.02;4.15;;;14.90;72.60;;;;;;4131078;28;20041;-83
2022/10/05 08:00:19;;;;;;;;;;;14.90;72.50;;;;;;4134012;28;20057;-83
2022/10/05 08:02:54;;;;;;;9.88;4.15;;;15.00;72.50;;;;;;4131886;28;20181;-84
2022/10/05 08:05:29;;;;;;;7.78;4.05;;;15.00;72.50;;;;;;4129026;28;20595;-84
2022/10/05 08:07:58;;;;;;;7.05;3.88;;;15.00;72.30;;;;;;4125549;28;20040;-84
2022/10/05 08:10:49;;;;;;;9.57;4.20;;;15.10;72.30;;;;;;4130556;28;20045;-84
2022/10/05 08:13:18;;;;;;;14.00;4.30;;;15.00;72.20;;;;;;4131543;28;20072;-85
2022/10/05 08:15:47;;;;;;;7.97;4.50;;;15.20;72.20;;;;;;4128921;28;20072;-83
2022/10/05 08:18:25;;;;;;;8.82;3.72;;;15.10;72.10;;;;;;4128200;28;20088;-84
2022/10/05 08:20:48;;;;;;;11.27;4.18;;;15.30;72.10;;;;;;4127547;28;20042;-84
2022/10/05 08:23:10;;;;;;;6.70;4.00;;;15.20;72.00;;;;;;4121638;28;20074;-84
2022/10/05 08:25:45;;;;;;;8.52;3.47;;;15.30;72.00;;;;;;4139410;28;20049;-84
2022/10/05 08:28:10;;;;;;;;;;;15.30;71.90;;;;;;4138176;28;20145;-84
2022/10/05 08:30:33;;;;;;;11.98;3.90;;;15.40;71.60;;;;;;4135582;28;19924;-83
2022/10/05 08:33:05;;;;;;;13.00;4.47;;;15.30;71.40;;;;;;4132299;28;20057;-83
2022/10/05 08:35:32;;;;;;;10.13;4.50;;;15.40;71.30;;;;;;4116337;28;20103;-84
2022/10/05 08:37:53;;;;;;;9.07;3.92;;;15.30;70.70;;;;;;4130193;28;20093;-84
2022/10/05 08:40:34;;;;;;;9.52;3.97;;;15.40;70.90;;;;;;4126891;28;20109;-84
2022/10/05 08:43:34;;;;;;;9.13;4.00;;;15.40;70.90;;;;;;4140417;28;20641;-84
2022/10/05 08:46:18;;;;;;;12.15;4.20;;;15.40;70.90;;;;;;4139873;28;20037;-85
2022/10/05 08:49:14;;;;;;;15.90;4.40;;;15.40;70.70;;;;;;4144719;28;20021;-85
2022/10/05 08:51:55;;;;;;;8.73;3.67;;;15.50;70.60;;;;;;4131027;28;20036;-84
2022/10/05 08:54:52;;;;;;;9.00;4.00;;;15.50;70.60;;;;;;4115775;28;20094;-83
2022/10/05 08:57:23;;;;;;;12.82;4.20;;;15.50;70.20;;;;;;4128703;28;20515;-83
2022/10/05 09:00:03;;;;;;;11.25;4.53;;;15.60;70.50;;;;;;4127115;28;20069;-84
2022/10/05 09:02:50;;;;;;;8.15;4.05;;;15.50;70.00;;;;;;4134835;28;20033;-84
2022/10/05 09:05:17;;;;;;;9.00;4.30;;;15.50;70.00;;;;;;4134374;28;20036;-83
2022/10/05 09:07:58;;;;;;;9.55;4.20;;;15.50;70.10;;;;;;4133461;28;20061;-84
2022/10/05 09:10:38;;;;;;;11.80;4.25;;;15.60;70.00;;;;;;4133633;28;20054;-84
2022/10/05 09:13:40;;;;;;;12.65;3.83;;;15.60;70.10;;;;;;4129531;28;20053;-86
2022/10/05 09:16:30;;;;;;;11.25;4.50;;;15.70;70.20;;;;;;4036788;29;20055;-84
2022/10/05 09:19:27;;;;;;;10.57;3.83;;;15.70;69.60;;;;;;4043132;29;20112;-84
2022/10/05 09:22:08;;;;;;;12.65;4.95;;;15.70;69.40;;;;;;4033961;29;20166;-84
2022/10/05 09:24:45;;;;;;;13.35;3.90;;;15.70;69.50;;;;;;4037130;29;20122;-84
2022/10/05 09:27:13;;;;;;;8.27;3.72;;;15.70;69.50;;;;;;4034823;29;20133;-84
2022/10/05 09:30:11;;;;;;;6.35;4.15;;;15.70;69.50;;;;;;4032779;29;20079;-85
2022/10/05 09:32:58;;;;;;;11.02;4.63;;;15.80;69.60;;;;;;4034169;29;20055;-85
2022/10/05 09:35:41;;;;;;;11.27;4.72;;;15.80;69.50;;;;;;4033464;29;20067;-84
2022/10/05 09:38:38;;;;;;;12.15;4.75;;;15.80;69.80;;;;;;4034685;29;20051;-84
2022/10/05 09:41:19;;;;;;;12.55;5.15;;;15.90;69.90;;;;;;4034884;29;20149;-84
2022/10/05 09:43:53;;;;;;;9.63;4.53;;;15.90;69.70;;;;;;4048121;29;20039;-84
2022/10/05 09:46:28;;;;;;;10.13;4.88;;;15.90;69.60;;;;;;4037936;29;20040;-85
2022/10/05 09:49:16;;;;;;;11.90;5.10;;;16.00;69.60;;;;;;4042038;29;20048;-84
2022/10/05 09:52:14;;;;;;;11.25;4.43;;;16.00;69.30;;;;;;4118707;28;20050;-83
2022/10/05 09:54:41;;;;;;;10.02;4.80;;;16.10;69.20;;;;;;4146972;28;20178;-84
2022/10/05 09:57:13;;;;;;;11.43;4.82;;;16.20;69.00;;;;;;4131038;28;20045;-84
2022/10/05 10:00:10;;;;;;;12.63;5.63;;;16.20;68.70;;;;;;4130921;28;20037;-85
2022/10/05 10:02:53;;;;;;;11.43;5.03;;;16.20;67.90;;;;;;4117905;28;20041;-84
2022/10/05 10:05:37;;;;;;;8.20;5.15;;;16.30;67.60;;;;;;4116691;28;20030;-85
2022/10/05 10:08:05;;;;;;;11.88;5.00;;;16.30;67.60;;;;;;4130339;28;20519;-83
2022/10/05 10:10:47;;;;;;;10.88;4.40;;;16.40;67.50;;;;;;4128471;28;20037;-84
2022/10/05 10:13:25;;;;;;;14.32;4.55;;;16.40;67.40;;;;;;4129561;28;20121;-83
2022/10/05 10:15:51;;;;;;;10.90;4.30;;;16.40;67.00;;;;;;4128751;28;20053;-85
2022/10/05 10:18:19;;;;;;;12.77;4.30;;;16.40;66.90;;;;;;4126954;28;20049;-85
2022/10/05 10:20:48;;;;;;;6.72;4.32;;;16.40;67.00;;;;;;4129827;28;20036;-84
2022/10/05 10:23:36;;;;;;;7.90;4.25;;;16.50;66.70;;;;;;4129388;28;20060;-82
2022/10/05 10:26:29;;;;;;;9.35;3.90;;;16.50;66.60;;;;;;4130825;28;20053;-83
2022/10/05 10:29:17;;;;;;;6.75;3.47;;;16.50;66.90;;;;;;4131978;28;20070;-84
2022/10/05 10:32:09;;;;;;;10.35;3.80;;;16.50;67.00;;;;;;4129858;28;20065;-84
2022/10/05 10:34:58;;;;;;;11.77;3.72;;;16.60;67.10;;;;;;4113473;28;20042;-84
2022/10/05 10:37:39;;;;;;;8.70;3.80;;;16.60;67.00;;;;;;4114189;28;20061;-84
2022/10/05 10:40:24;;;;;;;8.98;3.47;;;16.60;66.70;;;;;;4129438;28;20101;-85
2022/10/05 10:43:03;;;;;;;10.98;3.75;;;16.70;66.80;;;;;;4112235;28;20104;-84
2022/10/05 10:45:53;;;;;;;8.38;3.63;;;16.70;66.20;;;;;;4127301;28;20118;-83
2022/10/05 10:48:18;;;;;;;7.55;3.35;;;16.80;66.20;;;;;;4111375;28;20098;-83
2022/10/05 10:50:57;;;;;;;8.98;3.50;;;16.90;66.40;;;;;;4127975;28;20034;-84
2022/10/05 10:53:41;;;;;;;9.70;4.47;;;16.80;66.10;;;;;;4111239;28;20093;-83
2022/10/05 10:56:39;;;;;;;9.95;4.10;;;16.80;65.10;;;;;;4127397;28;20041;-85
2022/10/05 10:59:40;;;;;;;9.98;4.30;;;16.90;65.20;;;;;;4116219;28;20059;-84
2022/10/05 11:02:23;;;;;;;7.60;3.78;;;16.90;65.50;;;;;;4133063;28;20032;-85
2022/10/05 11:05:00;;;;;;;13.15;4.05;;;16.90;65.40;;;;;;4134064;28;20095;-84
2022/10/05 11:07:53;;;;;;;7.30;4.03;;;16.90;65.00;;;;;;4123459;28;20126;-85
2022/10/05 11:10:28;;;;;;;7.60;3.83;;;16.90;64.50;;;;;;4141989;28;20036;-85
2022/10/05 11:13:12;;;;;;;9.73;4.60;;;17.00;64.70;;;;;;4129450;28;20164;-85
2022/10/05 11:15:50;;;;;;;11.02;4.45;;;16.90;64.60;;;;;;4118266;28;20042;-84
2022/10/05 11:18:25;;;;;;;8.02;4.00;;;17.00;64.60;;;;;;4129752;28;20177;-83
2022/10/05 11:21:03;;;;;;;10.07;4.18;;;17.10;65.00;;;;;;4130061;28;20176;-84
2022/10/05 11:24:08;;;;;;;9.90;4.50;;;17.00;64.00;;;;;;4129039;28;20100;-83
2022/10/05 11:26:35;;;;;;;12.00;4.20;;;17.00;64.40;;;;;;4128255;28;20408;-84
2022/10/05 11:29:25;;;;;;;7.78;4.00;;;17.00;64.10;;;;;;4128445;28;20085;-83
2022/10/05 11:32:02;;;;;;;6.93;3.78;;;17.00;63.50;;;;;;4126048;28;20143;-84
2022/10/05 11:34:24;;;;;;;8.05;3.60;;;17.00;64.00;;;;;;4130449;28;20045;-85
2022/10/05 11:37:02;;;;;;;8.07;4.00;;;17.10;64.10;;;;;;4127993;28;20046;-83
2022/10/05 11:40:13;;;;;;;11.98;3.78;;;17.00;63.30;;;;;;4127615;28;20117;-86
2022/10/05 11:42:50;;;;;;;8.88;3.75;;;17.00;63.20;;;;;;4131896;28;20036;-86
2022/10/05 11:45:35;;;;;;;9.30;3.60;;;17.00;64.10;;;;;;4132846;28;20046;-84
2022/10/05 11:48:29;;;;;;;7.85;3.88;;;17.00;63.40;;;;;;4132178;28;20048;-84
2022/10/05 11:50:51;;;;;;;7.95;4.45;;;17.00;63.20;;;;;;4132735;28;20084;-85
2022/10/05 11:53:27;;;;;;;13.10;3.83;;;17.00;63.30;;;;;;4131255;28;20113;-84
2022/10/05 11:56:22;;;;;;;6.63;3.38;;;17.10;63.40;;;;;;4128162;28;20034;-85
2022/10/05 11:58:48;;;;;;;8.65;3.00;;;17.00;63.30;;;;;;4127685;28;20041;-84
2022/10/05 12:01:19;;;;;;;8.18;3.60;;;17.00;63.50;;;;;;4132731;28;20229;-84
2022/10/05 12:04:03;;;;;;;8.23;3.03;;;17.10;63.30;;;;;;4136450;28;20057;-87
2022/10/05 12:06:55;;;;;;;7.95;2.97;;;17.10;62.90;;;;;;4134673;28;20545;-87
2022/10/05 12:09:34;;;;;;;7.68;2.95;;;17.10;63.10;;;;;;4116290;28;20045;-86
2022/10/05 12:12:02;;;;;;;6.85;2.78;;;17.10;63.00;;;;;;4126109;28;20058;-84
2022/10/05 12:14:27;;;;;;;6.70;2.72;;;17.10;62.70;;;;;;4139403;28;20084;-85
2022/10/05 12:17:09;;;;;;;5.75;2.63;;;17.10;62.50;;;;;;4125242;28;20046;-85
2022/10/05 12:19:35;;;;;;;8.90;3.08;;;17.00;62.40;;;;;;4139894;28;20041;-84
2022/10/05 12:22:03;;;;;;;9.02;3.08;;;17.10;62.60;;;;;;4136186;28;20033;-85
2022/10/05 12:24:36;;;;;;;7.78;2.45;;;17.10;62.80;;;;;;4133615;28;20092;-84
2022/10/05 12:27:04;;;;;;;9.88;2.50;;;17.10;62.50;;;;;;4128693;28;20057;-84
2022/10/05 12:29:40;;;;;;;6.15;2.53;;;17.10;62.10;;;;;;4126865;28;20377;-83
2022/10/05 12:32:06;;;;;;;5.25;2.50;;;17.10;62.00;;;;;;4132192;28;20092;-83
2022/10/05 12:34:51;;;;;;;4.90;2.50;;;17.10;62.10;;;;;;4136320;28;20045;-83
2022/10/05 12:37:32;;;;;;;5.15;2.35;;;17.10;61.60;;;;;;4136398;28;20041;-84
2022/10/05 12:40:05;;;;;;;6.82;2.45;;;17.20;61.60;;;;;;4136502;28;20752;-84
2022/10/05 12:42:40;;;;;;;8.48;2.28;;;17.20;61.80;;;;;;4135550;28;20061;-83
2022/10/05 12:45:15;;;;;;;8.88;2.38;;;17.20;61.70;;;;;;4134402;28;20093;-83
2022/10/05 12:47:59;;;;;;;7.07;2.33;;;17.20;61.80;;;;;;4116095;28;20077;-83
2022/10/05 12:50:28;;;;;;;8.82;2.40;;;17.20;61.50;;;;;;4132926;28;20126;-83
2022/10/05 12:53:09;;;;;;;4.95;2.10;;;17.20;61.80;;;;;;4133553;28;20459;-84
2022/10/05 12:55:35;;;;;;;7.38;2.65;;;17.20;61.90;;;;;;4131715;28;20042;-84
2022/10/05 12:58:17;;;;;;;8.40;2.45;;;17.20;61.40;;;;;;4132131;28;20085;-86
2022/10/05 13:00:47;;;;;;;6.63;2.15;;;17.20;61.00;;;;;;4128287;28;20724;-85
2022/10/05 13:03:22;;;;;;;15.55;2.45;;;17.20;61.20;;;;;;4133463;28;20043;-85
2022/10/05 13:06:12;;;;;;;7.60;2.35;;;17.20;61.30;;;;;;4124639;28;20042;-84
2022/10/05 13:08:51;;;;;;;9.80;2.33;;;17.20;61.30;;;;;;4131016;28;20052;-84
2022/10/05 13:11:25;;;;;;;9.90;2.58;;;17.20;61.60;;;;;;4135133;28;20068;-85
2022/10/05 13:14:17;;;;;;;5.53;2.20;;;17.20;61.20;;;;;;4131184;28;20403;-85
2022/10/05 13:16:36;;;;;;;6.32;2.55;;;17.20;61.30;;;;;;4130386;28;20114;-84
2022/10/05 13:19:11;;;;;;;5.40;2.42;;;17.10;61.30;;;;;;4133799;28;20038;-84
2022/10/05 13:21:43;;;;;;;6.95;2.33;;;17.10;61.40;;;;;;4129307;28;20087;-85
2022/10/05 13:24:12;;;;;;;13.10;2.95;;;17.10;61.10;;;;;;4133960;28;20436;-84
2022/10/05 13:26:47;;;;;;;5.43;1.95;;;17.10;61.30;;;;;;4127874;28;20045;-84
2022/10/05 13:29:25;;;;;;;8.20;2.50;;;17.10;61.30;;;;;;4137239;28;20036;-83